createdAt,value
2019-02-09T00:00:13.559Z,2.09
2019-02-09T00:04:17.772Z,2.15
2019-02-09T00:08:22.166Z,2.19
2019-02-09T00:12:26.324Z,2.18
2019-02-09T00:16:30.523Z,2.14
2019-02-09T00:20:34.681Z,2.12
2019-02-09T00:24:38.908Z,2.12
2019-02-09T00:28:43.144Z,2.15
2019-02-09T00:32:47.386Z,2.13
2019-02-09T00:36:51.635Z,2.11
2019-02-09T00:40:55.898Z,2.06
2019-02-09T00:45:00.194Z,2.02
2019-02-09T00:49:04.886Z,1.95
2019-02-09T00:53:09.096Z,1.91
2019-02-09T00:57:13.639Z,1.83
2019-02-09T01:01:17.881Z,1.77
2019-02-09T01:05:25.560Z,1.70
2019-02-09T01:09:29.758Z,1.69
2019-02-09T01:13:33.960Z,1.64
2019-02-09T01:17:38.114Z,1.57
2019-02-09T01:21:42.309Z,1.49
2019-02-09T01:25:46.518Z,1.47
2019-02-09T01:29:50.744Z,1.46
2019-02-09T01:33:54.950Z,1.48
2019-02-09T01:37:59.150Z,1.54
2019-02-09T01:42:03.335Z,1.57
2019-02-09T01:46:07.571Z,1.55
2019-02-09T01:50:13.100Z,1.48
2019-02-09T01:54:17.313Z,1.43
2019-02-09T01:58:21.489Z,1.46
2019-02-09T02:02:25.673Z,1.46
2019-02-09T02:06:29.885Z,1.50
2019-02-09T02:10:36.011Z,1.54
2019-02-09T02:14:40.210Z,1.54
2019-02-09T02:18:44.405Z,1.53
2019-02-09T02:22:48.586Z,1.49
2019-02-09T02:26:52.785Z,1.47
2019-02-09T02:30:57.016Z,1.44
2019-02-09T02:35:01.234Z,1.43
2019-02-09T02:39:10.132Z,1.46
2019-02-09T02:43:14.338Z,1.49
2019-02-09T02:47:18.866Z,1.53
2019-02-09T02:51:23.075Z,1.55
2019-02-09T02:55:27.924Z,1.57
2019-02-09T02:59:32.415Z,1.56
2019-02-09T03:03:36.629Z,1.54
2019-02-09T03:07:40.940Z,1.52
2019-02-09T03:11:45.142Z,1.56
2019-02-09T03:15:49.801Z,1.58
2019-02-09T03:19:54.010Z,1.64
2019-02-09T03:23:58.450Z,1.67
2019-02-09T03:28:02.664Z,1.72
2019-02-09T03:32:10.740Z,1.75
2019-02-09T03:36:13.498Z,1.78
2019-02-09T03:40:19.284Z,1.78
2019-02-09T03:44:23.491Z,1.78
2019-02-09T03:48:27.715Z,1.76
2019-02-09T03:52:32.163Z,1.77
2019-02-09T03:56:36.366Z,1.80
2019-02-09T04:00:40.567Z,1.85
2019-02-09T04:04:44.726Z,1.90
2019-02-09T04:08:49.023Z,1.91
2019-02-09T04:12:53.277Z,1.95
2019-02-09T04:16:57.793Z,1.94
2019-02-09T04:21:03.018Z,1.94
2019-02-09T04:25:08.349Z,1.95
2019-02-09T04:29:12.570Z,2.02
2019-02-09T04:33:16.814Z,2.07
2019-02-09T04:37:21.026Z,2.12
2019-02-09T04:41:25.225Z,2.13
2019-02-09T04:45:29.519Z,2.16
2019-02-09T04:49:33.686Z,2.07
2019-02-09T04:53:38.090Z,2.02
2019-02-09T04:57:42.265Z,2.04
2019-02-09T05:01:46.426Z,2.03
2019-02-09T05:05:50.634Z,2.02
2019-02-09T05:09:54.863Z,2.02
2019-02-09T05:13:59.133Z,2.06
2019-02-09T05:18:03.322Z,2.09
2019-02-09T05:22:07.520Z,2.14
2019-02-09T05:26:11.723Z,2.16
2019-02-09T05:30:18.508Z,2.16
2019-02-09T05:34:22.751Z,2.18
2019-02-09T05:38:27.332Z,2.17
2019-02-09T05:42:31.529Z,2.17
2019-02-09T05:46:35.763Z,2.21
2019-02-09T05:50:39.980Z,2.21
2019-02-09T05:54:44.510Z,2.20
2019-02-09T05:58:48.696Z,2.25
2019-02-09T06:02:52.883Z,2.26
2019-02-09T06:06:57.044Z,2.25
2019-02-09T06:11:01.452Z,2.24
2019-02-09T06:15:06.547Z,2.23
2019-02-09T06:19:10.727Z,2.22
2019-02-09T06:23:14.929Z,2.24
2019-02-09T06:27:19.193Z,2.18
2019-02-09T06:31:23.368Z,2.16
2019-02-09T06:35:27.829Z,2.16
2019-02-09T06:39:32.037Z,2.13
2019-02-09T06:43:36.247Z,2.17
2019-02-09T06:47:40.423Z,2.14
2019-02-09T06:51:45.230Z,2.16
2019-02-09T06:55:49.396Z,2.17
2019-02-09T06:59:53.607Z,2.19
2019-02-09T07:03:58.101Z,2.18
2019-02-09T07:08:02.296Z,2.15
2019-02-09T07:12:06.650Z,2.14
2019-02-09T07:16:10.818Z,2.17
2019-02-09T07:20:15.743Z,2.19
2019-02-09T07:24:19.910Z,2.23
2019-02-09T07:28:24.107Z,2.26
2019-02-09T07:32:28.300Z,2.34
2019-02-09T07:36:32.496Z,2.33
2019-02-09T07:40:36.709Z,2.35
2019-02-09T07:44:40.929Z,2.39
2019-02-09T07:48:45.129Z,2.43
2019-02-09T07:52:49.880Z,2.46
2019-02-09T07:56:54.091Z,2.45
2019-02-09T08:00:58.244Z,2.50
2019-02-09T08:05:02.448Z,2.48
2019-02-09T08:09:11.534Z,2.48
2019-02-09T08:13:15.697Z,2.50
2019-02-09T08:17:19.900Z,2.48
2019-02-09T08:21:24.164Z,2.50
2019-02-09T08:25:30.581Z,2.52
2019-02-09T08:29:34.803Z,2.56
2019-02-09T08:33:39.032Z,2.62
2019-02-09T08:37:43.304Z,2.64
2019-02-09T08:41:47.537Z,2.70
2019-02-09T08:45:52.099Z,2.74
2019-02-09T08:49:56.281Z,2.78
2019-02-09T08:54:00.479Z,2.86
2019-02-09T08:58:05.057Z,2.94
2019-02-09T09:02:09.270Z,2.97
2019-02-09T09:06:13.431Z,2.99
2019-02-09T09:10:19.275Z,3.08
2019-02-09T09:14:23.459Z,3.13
2019-02-09T09:18:27.666Z,3.15
2019-02-09T09:22:31.876Z,3.13
2019-02-09T09:26:36.058Z,3.16
2019-02-09T09:30:40.423Z,3.15
2019-02-09T09:34:44.630Z,3.20
2019-02-09T09:38:48.844Z,3.17
2019-02-09T09:42:53.408Z,3.19
2019-02-09T09:46:57.615Z,3.22
2019-02-09T09:51:02.314Z,3.23
2019-02-09T09:55:07.052Z,3.27
2019-02-09T09:59:11.220Z,3.32
2019-02-09T10:03:15.433Z,3.38
2019-02-09T10:07:19.638Z,3.43
2019-02-09T10:11:23.890Z,3.54
2019-02-09T10:15:28.586Z,3.64
2019-02-09T10:19:32.785Z,3.75
2019-02-09T10:23:36.998Z,3.84
2019-02-09T10:27:41.216Z,3.95
2019-02-09T10:31:45.413Z,4.10
2019-02-09T10:35:49.604Z,4.26
2019-02-09T10:39:53.828Z,4.37
2019-02-09T10:43:58.385Z,4.48
2019-02-09T10:48:02.769Z,4.52
2019-02-09T10:52:06.936Z,4.64
2019-02-09T10:56:11.246Z,4.76
2019-02-09T11:00:19.184Z,4.91
2019-02-09T11:04:23.397Z,5.02
2019-02-09T11:08:27.668Z,5.16
2019-02-09T11:12:31.894Z,5.23
2019-02-09T11:16:36.160Z,5.38
2019-02-09T11:20:40.374Z,5.40
2019-02-09T11:24:44.599Z,5.42
2019-02-09T11:28:48.882Z,5.53
2019-02-09T11:33:01.558Z,5.54
2019-02-09T11:36:59.364Z,5.54
2019-02-09T11:41:03.615Z,5.54
2019-02-09T11:45:11.718Z,5.55
2019-02-09T11:49:15.914Z,5.57
2019-02-09T11:53:20.124Z,5.63
2019-02-09T11:57:24.337Z,5.72
2019-02-09T12:01:28.545Z,5.80
2019-02-09T12:05:32.714Z,5.78
2019-02-09T12:09:36.936Z,5.78
2019-02-09T12:13:41.540Z,5.82
2019-02-09T12:17:45.928Z,5.87
2019-02-09T12:21:50.284Z,5.92
2019-02-09T12:25:54.894Z,5.92
2019-02-09T12:29:59.122Z,5.96
2019-02-09T12:34:03.296Z,6.03
2019-02-09T12:38:08.227Z,6.13
2019-02-09T12:42:12.435Z,6.16
2019-02-09T12:46:16.740Z,6.25
2019-02-09T12:50:23.723Z,6.31
2019-02-09T12:54:27.967Z,6.41
2019-02-09T12:58:32.182Z,6.48
2019-02-09T13:02:36.580Z,6.54
2019-02-09T13:06:40.792Z,6.59
2019-02-09T13:10:45.020Z,6.63
2019-02-09T13:14:49.255Z,6.71
2019-02-09T13:18:53.418Z,6.78
2019-02-09T13:22:58.631Z,6.77
2019-02-09T13:27:02.833Z,6.73
2019-02-09T13:31:07.078Z,6.74
2019-02-09T13:35:11.967Z,6.75
2019-02-09T13:39:16.134Z,6.76
2019-02-09T13:43:20.307Z,6.78
2019-02-09T13:47:24.926Z,6.85
2019-02-09T13:51:29.140Z,6.90
2019-02-09T13:55:33.329Z,6.96
2019-02-09T13:59:37.591Z,7.02
2019-02-09T14:03:46.962Z,7.11
2019-02-09T14:07:48.064Z,7.18
2019-02-09T14:11:53.408Z,7.24
2019-02-09T14:15:57.770Z,7.24
2019-02-09T14:20:02.486Z,7.25
2019-02-09T14:24:06.813Z,7.27
2019-02-09T14:28:15.266Z,7.29
2019-02-09T14:32:19.698Z,7.30
2019-02-09T14:36:23.914Z,7.33
2019-02-09T14:40:30.325Z,7.38
2019-02-09T14:44:34.559Z,7.41
2019-02-09T14:48:40.056Z,7.45
2019-02-09T14:52:44.264Z,7.42
2019-02-09T14:56:48.498Z,7.46
2019-02-09T15:00:54.002Z,7.47
2019-02-09T15:04:58.368Z,7.49
2019-02-09T15:09:03.463Z,7.51
2019-02-09T15:13:09.305Z,7.57
2019-02-09T15:17:13.524Z,7.61
2019-02-09T15:21:18.584Z,7.59
2019-02-09T15:25:22.815Z,7.57
2019-02-09T15:29:27.031Z,7.58
2019-02-09T15:33:31.238Z,7.59
2019-02-09T15:37:35.471Z,7.56
2019-02-09T15:41:39.767Z,7.54
2019-02-09T15:45:44.988Z,7.49
2019-02-09T15:49:49.205Z,7.42
2019-02-09T15:53:53.414Z,7.41
2019-02-09T15:57:57.639Z,7.37
2019-02-09T16:02:01.864Z,7.30
2019-02-09T16:06:06.451Z,7.21
2019-02-09T16:10:11.157Z,7.08
2019-02-09T16:14:15.385Z,7.00
2019-02-09T16:18:19.562Z,6.94
2019-02-09T16:22:23.775Z,6.87
2019-02-09T16:26:27.999Z,6.78
2019-02-09T16:30:32.170Z,6.72
2019-02-09T16:34:36.803Z,6.71
2019-02-09T16:38:40.992Z,6.73
2019-02-09T16:42:56.568Z,6.76
2019-02-09T16:47:04.069Z,6.74
2019-02-09T16:51:11.205Z,6.68
2019-02-09T16:55:16.413Z,6.57
2019-02-09T16:59:20.903Z,6.51
2019-02-09T17:03:26.841Z,6.47
2019-02-09T17:07:31.036Z,6.40
2019-02-09T17:11:35.815Z,6.35
2019-02-09T17:15:40.033Z,6.28
2019-02-09T17:19:44.739Z,6.22
2019-02-09T17:23:50.437Z,6.19
2019-02-09T17:27:55.597Z,6.17
2019-02-09T17:31:59.844Z,6.18
2019-02-09T17:36:06.314Z,6.14
2019-02-09T17:40:14.057Z,6.12
2019-02-09T17:44:18.278Z,6.11
2019-02-09T17:48:22.575Z,6.14
2019-02-09T17:52:28.404Z,6.14
2019-02-09T17:56:34.645Z,6.13
2019-02-09T18:00:46.073Z,6.12
2019-02-09T18:04:50.594Z,6.14
2019-02-09T18:08:54.806Z,6.13
2019-02-09T18:12:59.003Z,6.08
2019-02-09T18:17:03.629Z,6.05
2019-02-09T18:21:07.854Z,5.99
2019-02-09T18:25:14.039Z,5.92
2019-02-09T18:29:18.249Z,5.84
2019-02-09T18:33:22.425Z,5.79
2019-02-09T18:37:28.655Z,5.79
2019-02-09T18:41:33.917Z,5.77
2019-02-09T18:45:40.898Z,5.75
2019-02-09T18:49:45.156Z,5.74
2019-02-09T18:53:49.348Z,5.75
2019-02-09T18:57:53.871Z,5.75
2019-02-09T19:01:58.125Z,5.79
2019-02-09T19:06:02.511Z,5.81
2019-02-09T19:10:10.094Z,5.80
2019-02-09T19:14:14.682Z,5.74
2019-02-09T19:18:18.872Z,5.70
2019-02-09T19:22:27.378Z,5.72
2019-02-09T19:26:31.956Z,5.78
2019-02-09T19:30:36.367Z,5.82
2019-02-09T19:34:40.574Z,5.81
2019-02-09T19:38:44.795Z,5.80
2019-02-09T19:42:49.546Z,5.83
2019-02-09T19:46:53.763Z,5.82
2019-02-09T19:50:57.957Z,5.79
2019-02-09T19:55:02.908Z,5.75
2019-02-09T19:59:07.113Z,5.69
2019-02-09T20:03:11.469Z,5.69
2019-02-09T20:07:17.074Z,5.66
2019-02-09T20:11:21.277Z,5.65
2019-02-09T20:15:25.731Z,5.57
2019-02-09T20:19:30.020Z,5.48
2019-02-09T20:23:34.147Z,5.42
2019-02-09T20:27:38.427Z,5.32
2019-02-09T20:31:42.632Z,5.31
2019-02-09T20:35:49.172Z,5.29
2019-02-09T20:39:53.363Z,5.26
2019-02-09T20:43:57.612Z,5.23
2019-02-09T20:48:01.833Z,5.20
2019-02-09T20:52:06.209Z,5.14
2019-02-09T20:56:11.631Z,5.15
2019-02-09T21:00:18.624Z,5.09
2019-02-09T21:04:23.429Z,5.04
2019-02-09T21:08:27.617Z,4.96
2019-02-09T21:12:32.052Z,4.92
2019-02-09T21:16:36.250Z,4.85
2019-02-09T21:20:40.442Z,4.84
2019-02-09T21:24:47.339Z,4.86
2019-02-09T21:28:51.554Z,4.85
2019-02-09T21:32:56.143Z,4.76
2019-02-09T21:37:00.325Z,4.79
2019-02-09T21:41:04.753Z,4.81
2019-02-09T21:45:10.594Z,4.79
2019-02-09T21:49:15.247Z,4.72
2019-02-09T21:53:19.467Z,4.72
2019-02-09T21:57:25.471Z,4.74
2019-02-09T22:01:29.704Z,4.76
2019-02-09T22:05:36.158Z,4.77
2019-02-09T22:09:40.322Z,4.74
2019-02-09T22:13:44.590Z,4.75
2019-02-09T22:17:48.738Z,4.76
2019-02-09T22:21:53.462Z,4.80
2019-02-09T22:25:57.905Z,4.83
2019-02-09T22:30:02.220Z,4.83
2019-02-09T22:34:06.789Z,4.82
2019-02-09T22:38:11.100Z,4.78
2019-02-09T22:42:15.496Z,4.81
2019-02-09T22:46:19.671Z,4.83
2019-02-09T22:50:26.892Z,4.86
2019-02-09T22:54:31.102Z,4.86
2019-02-09T22:58:35.496Z,4.84
2019-02-09T23:02:39.717Z,4.87
2019-02-09T23:06:57.546Z,4.85
2019-02-09T23:11:01.796Z,4.77
2019-02-09T23:15:06.887Z,4.70
2019-02-09T23:19:11.129Z,4.63
2019-02-09T23:23:15.672Z,4.55
2019-02-09T23:27:19.884Z,4.47
2019-02-09T23:31:24.409Z,4.42
2019-02-09T23:35:28.714Z,4.37
2019-02-09T23:39:32.948Z,4.30
2019-02-09T23:43:37.634Z,4.28
2019-02-09T23:47:43.633Z,4.25
2019-02-09T23:51:47.988Z,4.19
2019-02-09T23:55:54.626Z,4.14
2019-02-09T23:59:58.883Z,4.09
